89TA weather

Public forecast

Using degrees Fahrenheit for public forecast. Weather courtesy of forecast.io.

Closest aviation weather report (METAR) to Soaring Club of Houston Gliderport

Closest report is Brenham Municipal Airport, 21.4 nm (39.6 km) W. Retrieved 2020/08/12 11:35 UTC (10 minutes ago):

K11R 121135Z AUTO 00000KT 10SM CLR 26/25 A2997 RMK AO2 T02550249

Closest aviation forecast (TAF) to Soaring Club of Houston Gliderport

Forecast is more than 12 hours old.

Closest forecast is David Wayne Hooks Memorial Airport, 22.7 nm (42.1 km) ESE. Retrieved 2017/02/07 12:51 UTC (4 years ago):

TAF KDWH 071148Z 0712/0812 20009G15KT P6SM SCT022 OVC030 TEMPO 0712/0715 BKN018 FM071500 23010KT P6SM BKN015 FM071900 25010KT P6SM SCT025 FM080100 22005KT P6SM SCT250 TEMPO 0807/0809 3SM BR BKN013 FM080900 VRB03KT 2SM BR OVC008